createdAt,value
2019-05-26T00:00:50.135Z,101600.48
2019-05-26T00:03:58.817Z,101592.89
2019-05-26T00:07:30.312Z,101583.55
2019-05-26T00:10:28.149Z,101585.81
2019-05-26T00:13:36.776Z,101576.85
2019-05-26T00:16:45.416Z,101571.79
2019-05-26T00:19:54.239Z,101571.22
2019-05-26T00:23:03.110Z,101574.98
2019-05-26T00:26:11.643Z,101567.16
2019-05-26T00:29:20.347Z,101560.39
2019-05-26T00:32:28.886Z,101561.39
2019-05-26T00:35:37.579Z,101555.70
2019-05-26T00:38:46.227Z,101554.34
2019-05-26T00:41:54.865Z,101543.36
2019-05-26T00:45:14.689Z,101541.31
2019-05-26T00:48:23.267Z,101539.31
2019-05-26T00:51:31.901Z,101540.84
2019-05-26T00:54:40.511Z,101531.07
2019-05-26T00:57:59.413Z,101525.84
2019-05-26T01:01:08.123Z,101524.99
2019-05-26T01:04:16.726Z,101524.61
2019-05-26T01:07:25.382Z,101510.38
2019-05-26T01:10:34.050Z,101502.77
2019-05-26T01:13:41.084Z,101504.45
2019-05-26T01:16:49.714Z,101503.61
2019-05-26T01:19:58.429Z,101502.10
2019-05-26T01:23:07.178Z,101495.90
2019-05-26T01:26:15.822Z,101498.45
2019-05-26T01:29:34.960Z,101492.33
2019-05-26T01:32:43.718Z,101495.39
2019-05-26T01:35:52.514Z,101500.04
2019-05-26T01:39:01.608Z,101496.31
2019-05-26T01:42:20.491Z,101483.89
2019-05-26T01:45:29.307Z,101486.96
2019-05-26T01:48:37.945Z,101477.79
2019-05-26T01:51:46.629Z,101476.97
2019-05-26T01:54:56.237Z,101472.79
2019-05-26T01:58:05.436Z,101470.53
2019-05-26T02:01:13.964Z,101470.52
2019-05-26T02:04:22.700Z,101472.20
2019-05-26T02:07:31.906Z,101464.44
2019-05-26T02:10:40.840Z,101463.26
2019-05-26T02:13:49.495Z,101465.94
2019-05-26T02:16:59.294Z,101462.55
2019-05-26T02:20:08.794Z,101468.38
2019-05-26T02:23:18.144Z,101465.16
2019-05-26T02:26:26.800Z,101453.48
2019-05-26T02:29:35.834Z,101454.84
2019-05-26T02:32:54.946Z,101443.59
2019-05-26T02:36:03.573Z,101438.34
2019-05-26T02:39:12.401Z,101428.88
2019-05-26T02:42:21.009Z,101432.21
2019-05-26T02:45:29.744Z,101429.89
2019-05-26T02:48:38.513Z,101422.61
2019-05-26T02:51:47.244Z,101415.12
2019-05-26T02:54:55.790Z,101416.47
2019-05-26T02:58:04.431Z,101405.97
2019-05-26T03:01:23.596Z,101405.64
2019-05-26T03:04:43.381Z,101403.95
2019-05-26T03:07:53.512Z,101405.67
2019-05-26T03:11:03.054Z,101401.25
2019-05-26T03:14:13.105Z,101399.75
2019-05-26T03:17:25.015Z,101402.42
2019-05-26T03:20:39.990Z,101397.66
2019-05-26T03:23:50.936Z,101396.39
2019-05-26T03:26:59.564Z,101399.24
2019-05-26T03:30:09.920Z,101400.30
2019-05-26T03:33:16.587Z,101397.08
2019-05-26T03:36:25.313Z,101395.87
2019-05-26T03:39:46.152Z,101391.05
2019-05-26T03:42:54.477Z,101388.11
2019-05-26T03:46:19.703Z,101380.36
2019-05-26T03:49:38.728Z,101369.81
2019-05-26T03:52:47.343Z,101365.93
2019-05-26T03:55:56.078Z,101368.75
2019-05-26T03:59:04.772Z,101363.80
2019-05-26T04:02:13.428Z,101357.17
2019-05-26T04:05:22.075Z,101354.91
2019-05-26T04:08:31.836Z,101359.04
2019-05-26T04:11:50.879Z,101351.08
2019-05-26T04:14:59.553Z,101349.63
2019-05-26T04:18:08.190Z,101345.44
2019-05-26T04:21:16.835Z,101336.38
2019-05-26T04:24:25.503Z,101330.69
2019-05-26T04:27:34.040Z,101323.39
2019-05-26T04:30:42.715Z,101323.53
2019-05-26T04:33:51.336Z,101322.56
2019-05-26T04:36:58.708Z,101321.06
2019-05-26T04:40:25.075Z,101309.84
2019-05-26T04:43:18.010Z,101309.17
2019-05-26T04:46:26.664Z,101314.64
2019-05-26T04:49:37.445Z,101320.06
2019-05-26T04:53:04.561Z,101315.95
2019-05-26T04:55:57.137Z,101308.13
2019-05-26T04:59:06.288Z,101307.52
2019-05-26T05:02:25.278Z,101308.34
2019-05-26T05:05:33.850Z,101299.55
2019-05-26T05:08:42.600Z,101299.14
2019-05-26T05:11:51.284Z,101293.42
2019-05-26T05:14:59.933Z,101284.62
2019-05-26T05:18:08.677Z,101289.25
2019-05-26T05:21:17.356Z,101291.28
2019-05-26T05:24:26.020Z,101280.38
2019-05-26T05:27:34.694Z,101272.94
2019-05-26T05:30:43.387Z,101278.94
2019-05-26T05:34:02.202Z,101265.48
2019-05-26T05:37:10.866Z,101270.72
2019-05-26T05:40:19.486Z,101263.70
2019-05-26T05:43:28.143Z,101265.13
2019-05-26T05:46:36.779Z,101253.92
2019-05-26T05:49:45.558Z,101256.96
2019-05-26T05:52:54.257Z,101258.53
2019-05-26T05:56:03.030Z,101252.56
2019-05-26T05:59:11.799Z,101250.56
2019-05-26T06:02:20.457Z,101243.98
2019-05-26T06:05:29.097Z,101241.06
2019-05-26T06:08:48.053Z,101241.59
2019-05-26T06:11:58.147Z,101240.09
2019-05-26T06:15:10.613Z,101245.95
2019-05-26T06:18:19.283Z,101243.78
2019-05-26T06:21:28.007Z,101232.39
2019-05-26T06:24:36.645Z,101235.36
2019-05-26T06:27:43.813Z,101230.06
2019-05-26T06:30:52.351Z,101234.85
2019-05-26T06:34:01.014Z,101228.78
2019-05-26T06:37:09.640Z,101221.91
2019-05-26T06:40:18.528Z,101221.50
2019-05-26T06:43:27.190Z,101207.27
2019-05-26T06:46:35.820Z,101210.50
2019-05-26T06:49:44.639Z,101215.54
2019-05-26T06:52:53.306Z,101205.73
2019-05-26T06:56:12.430Z,101214.08
2019-05-26T06:59:31.397Z,101199.02
2019-05-26T07:02:39.937Z,101201.01
2019-05-26T07:05:48.586Z,101202.38
2019-05-26T07:08:57.277Z,101207.82
2019-05-26T07:12:05.833Z,101202.36
2019-05-26T07:15:14.530Z,101207.25
2019-05-26T07:18:23.166Z,101203.17
2019-05-26T07:21:41.946Z,101196.86
2019-05-26T07:24:50.579Z,101209.43
2019-05-26T07:27:59.451Z,101192.89
2019-05-26T07:31:08.017Z,101196.24
2019-05-26T07:34:16.599Z,101193.20
2019-05-26T07:37:25.243Z,101190.63
2019-05-26T07:40:33.823Z,101191.33
2019-05-26T07:43:42.347Z,101186.59
2019-05-26T07:47:01.660Z,101177.89
2019-05-26T07:50:11.313Z,101188.92
2019-05-26T07:53:19.995Z,101182.84
2019-05-26T07:56:28.511Z,101185.67
2019-05-26T07:59:37.080Z,101178.63
2019-05-26T08:02:55.947Z,101177.99
2019-05-26T08:06:04.771Z,101181.66
2019-05-26T08:09:11.959Z,101172.58
2019-05-26T08:12:26.831Z,101173.27
2019-05-26T08:15:40.065Z,101171.11
2019-05-26T08:18:48.612Z,101171.69
2019-05-26T08:21:57.301Z,101167.14
2019-05-26T08:25:06.321Z,101166.50
2019-05-26T08:28:15.012Z,101161.30
2019-05-26T08:31:23.683Z,101156.22
2019-05-26T08:34:32.345Z,101152.91
2019-05-26T08:37:40.929Z,101149.20
2019-05-26T08:40:49.488Z,101144.56
2019-05-26T08:43:58.109Z,101145.86
2019-05-26T08:47:17.137Z,101133.13
2019-05-26T08:50:25.876Z,101138.64
2019-05-26T08:53:34.522Z,101123.86
2019-05-26T08:56:43.154Z,101118.56
2019-05-26T08:59:51.926Z,101126.89
2019-05-26T09:03:00.548Z,101121.94
2019-05-26T09:06:11.113Z,101116.55
2019-05-26T09:09:19.708Z,101110.27
2019-05-26T09:12:28.236Z,101116.61
2019-05-26T09:15:36.750Z,101124.79
2019-05-26T09:18:55.763Z,101114.23
2019-05-26T09:22:14.589Z,101117.41
2019-05-26T09:25:23.263Z,101112.92
2019-05-26T09:28:32.004Z,101116.92
2019-05-26T09:31:40.726Z,101102.13
2019-05-26T09:34:49.305Z,101103.36
2019-05-26T09:37:57.863Z,101095.31
2019-05-26T09:41:06.412Z,101103.93
2019-05-26T09:44:15.014Z,101106.34
2019-05-26T09:47:33.964Z,101101.36
2019-05-26T09:50:42.555Z,101106.73
2019-05-26T09:54:01.336Z,101099.91
2019-05-26T09:57:01.293Z,101110.63
2019-05-26T10:00:15.888Z,101109.09
2019-05-26T10:03:22.547Z,101108.74
2019-05-26T10:06:31.116Z,101113.02
2019-05-26T10:09:39.674Z,101109.25
2019-05-26T10:12:48.206Z,101122.80
2019-05-26T10:15:56.759Z,101116.36
2019-05-26T10:19:15.792Z,101119.25
2019-05-26T10:22:24.597Z,101122.46
2019-05-26T10:25:33.329Z,101118.22
2019-05-26T10:28:42.075Z,101118.94
2019-05-26T10:31:50.671Z,101111.23
2019-05-26T10:34:59.216Z,101114.48
2019-05-26T10:38:07.906Z,101110.23
2019-05-26T10:41:16.578Z,101106.64
2019-05-26T10:44:25.371Z,101105.59
2019-05-26T10:47:33.948Z,101097.41
2019-05-26T10:50:42.704Z,101090.02
2019-05-26T10:53:51.246Z,101100.55
2019-05-26T10:57:10.192Z,101099.74
2019-05-26T11:00:20.870Z,101102.25
2019-05-26T11:03:39.920Z,101101.09
2019-05-26T11:06:48.645Z,101101.77
2019-05-26T11:09:57.382Z,101099.00
2019-05-26T11:13:05.961Z,101090.78
2019-05-26T11:16:14.509Z,101088.59
2019-05-26T11:19:23.108Z,101087.25
2019-05-26T11:22:31.658Z,101079.22
2019-05-26T11:25:50.428Z,101075.83
2019-05-26T11:28:59.038Z,101062.26
2019-05-26T11:32:07.619Z,101055.61
2019-05-26T11:35:16.419Z,101056.27
2019-05-26T11:38:35.129Z,101054.73
2019-05-26T11:41:45.004Z,101039.58
2019-05-26T11:44:54.765Z,101037.89
2019-05-26T11:48:13.670Z,101031.36
2019-05-26T11:51:22.367Z,101024.80
2019-05-26T11:54:34.343Z,101011.60
2019-05-26T11:57:41.361Z,101014.41
2019-05-26T12:00:50.037Z,101004.91
2019-05-26T12:03:58.615Z,101005.88
2019-05-26T12:07:07.227Z,101003.20
2019-05-26T12:10:17.537Z,101002.03
2019-05-26T12:13:36.825Z,101003.25
2019-05-26T12:16:45.721Z,101000.70
2019-05-26T12:19:54.405Z,100994.67
2019-05-26T12:23:13.137Z,100991.54
2019-05-26T12:26:21.799Z,100987.09
2019-05-26T12:29:29.636Z,100973.92
2019-05-26T12:32:48.571Z,100977.67
2019-05-26T12:35:57.280Z,100980.47
2019-05-26T12:39:08.807Z,100974.59
2019-05-26T12:42:17.381Z,100972.69
2019-05-26T12:45:25.998Z,100978.84
2019-05-26T12:48:36.622Z,100974.77
2019-05-26T12:51:45.072Z,100977.95
2019-05-26T12:55:08.103Z,100970.27
2019-05-26T12:58:14.792Z,100970.22
2019-05-26T13:01:33.468Z,100956.63
2019-05-26T13:04:42.024Z,100958.92
2019-05-26T13:07:50.769Z,100951.39
2019-05-26T13:10:59.580Z,100948.70
2019-05-26T13:14:08.326Z,100939.56
2019-05-26T13:17:16.943Z,100942.48
2019-05-26T13:20:25.736Z,100944.27
2019-05-26T13:23:34.375Z,100940.44
2019-05-26T13:26:42.945Z,100941.32
2019-05-26T13:29:51.491Z,100949.20
2019-05-26T13:33:10.466Z,100949.17
2019-05-26T13:36:19.131Z,100941.72
2019-05-26T13:39:27.858Z,100944.95
2019-05-26T13:42:36.448Z,100942.19
2019-05-26T13:45:45.067Z,100933.54
2019-05-26T13:48:54.014Z,100929.38
2019-05-26T13:52:02.549Z,100915.36
2019-05-26T13:55:11.873Z,100920.01
2019-05-26T13:58:20.417Z,100925.09
2019-05-26T14:01:28.982Z,100920.22
2019-05-26T14:04:37.687Z,100925.84
2019-05-26T14:07:46.515Z,100911.62
2019-05-26T14:10:55.087Z,100907.21
2019-05-26T14:14:13.948Z,100903.21
2019-05-26T14:17:23.668Z,100899.52
2019-05-26T14:20:38.053Z,100909.41
2019-05-26T14:23:57.130Z,100908.63
2019-05-26T14:27:05.885Z,100909.58
2019-05-26T14:30:14.599Z,100905.67
2019-05-26T14:33:23.344Z,100903.92
2019-05-26T14:36:31.885Z,100902.83
2019-05-26T14:39:40.171Z,100896.68
2019-05-26T14:42:59.025Z,100903.55
2019-05-26T14:46:07.726Z,100914.27
2019-05-26T14:49:16.356Z,100924.03
2019-05-26T14:52:24.887Z,100904.93
2019-05-26T14:55:35.065Z,100902.52
2019-05-26T14:58:43.701Z,100906.05
2019-05-26T15:01:52.578Z,100902.27
2019-05-26T15:05:01.263Z,100899.62
2019-05-26T15:08:09.925Z,100891.98
2019-05-26T15:11:18.477Z,100891.73
2019-05-26T15:14:37.317Z,100886.37
2019-05-26T15:17:45.864Z,100893.11
2019-05-26T15:20:56.151Z,100883.91
2019-05-26T15:24:04.903Z,100884.87
2019-05-26T15:27:15.890Z,100892.72
2019-05-26T15:30:26.832Z,100877.63
2019-05-26T15:33:35.419Z,100875.77
2019-05-26T15:36:54.241Z,100862.20
2019-05-26T15:40:04.222Z,100866.50
2019-05-26T15:43:11.282Z,100857.44
2019-05-26T15:46:25.335Z,100856.14
2019-05-26T15:49:35.818Z,100855.89
2019-05-26T15:52:45.459Z,100850.95
2019-05-26T15:55:54.010Z,100844.38
2019-05-26T15:59:02.748Z,100836.69
2019-05-26T16:02:21.591Z,100823.29
2019-05-26T16:05:30.304Z,100821.34
2019-05-26T16:08:38.964Z,100815.27
2019-05-26T16:11:47.470Z,100802.84
2019-05-26T16:14:56.690Z,100812.23
2019-05-26T16:18:05.330Z,100803.75
2019-05-26T16:21:27.036Z,100796.17
2019-05-26T16:24:24.113Z,100794.44
2019-05-26T16:27:32.659Z,100791.51
2019-05-26T16:30:41.219Z,100775.22
2019-05-26T16:34:06.093Z,100770.64
2019-05-26T16:37:14.732Z,100773.31
2019-05-26T16:40:23.451Z,100775.80
2019-05-26T16:43:31.995Z,100780.34
2019-05-26T16:46:55.165Z,100787.63
2019-05-26T16:49:50.914Z,100790.16
2019-05-26T16:52:59.456Z,100792.87
2019-05-26T16:56:18.204Z,100794.23
2019-05-26T16:59:27.152Z,100799.23
2019-05-26T17:02:35.688Z,100794.20
2019-05-26T17:05:44.338Z,100800.03
2019-05-26T17:08:52.964Z,100796.36
2019-05-26T17:12:01.510Z,100787.84
2019-05-26T17:15:12.266Z,100794.25
2019-05-26T17:18:21.311Z,100796.82
2019-05-26T17:21:29.927Z,100797.34
2019-05-26T17:24:38.557Z,100799.48
2019-05-26T17:27:47.120Z,100829.05
2019-05-26T17:30:55.768Z,100827.49
2019-05-26T17:34:04.301Z,100823.49
2019-05-26T17:37:42.818Z,100824.86
2019-05-26T17:40:51.578Z,100837.51
2019-05-26T17:44:00.103Z,100838.91
2019-05-26T17:47:08.622Z,100837.53
2019-05-26T17:50:18.415Z,100839.64
2019-05-26T17:53:37.227Z,100837.46
2019-05-26T17:56:46.007Z,100842.58
2019-05-26T17:59:54.570Z,100845.08
2019-05-26T18:03:03.228Z,100846.15
2019-05-26T18:06:11.834Z,100839.88
2019-05-26T18:09:20.454Z,100836.36
2019-05-26T18:12:29.071Z,100829.58
2019-05-26T18:15:37.756Z,100825.72
2019-05-26T18:18:56.529Z,100823.33
2019-05-26T18:22:05.403Z,100825.58
2019-05-26T18:25:14.432Z,100824.94
2019-05-26T18:28:33.755Z,100826.83
2019-05-26T18:31:42.566Z,100823.95
2019-05-26T18:34:51.433Z,100830.41
2019-05-26T18:38:00.045Z,100825.43
2019-05-26T18:41:08.554Z,100824.75
2019-05-26T18:44:17.100Z,100829.68
2019-05-26T18:47:25.690Z,100827.18
2019-05-26T18:50:34.283Z,100824.11
2019-05-26T18:53:53.135Z,100824.36
2019-05-26T18:57:01.735Z,100830.91
2019-05-26T19:00:11.176Z,100819.44
2019-05-26T19:03:29.984Z,100818.45
2019-05-26T19:06:38.608Z,100822.37
2019-05-26T19:09:47.396Z,100827.82
2019-05-26T19:12:55.940Z,100821.81
2019-05-26T19:16:04.524Z,100810.78
2019-05-26T19:19:13.239Z,100820.47
2019-05-26T19:22:22.138Z,100807.47
2019-05-26T19:25:30.841Z,100809.67
2019-05-26T19:28:39.635Z,100810.33
2019-05-26T19:31:48.190Z,100801.80
2019-05-26T19:35:07.581Z,100798.38
2019-05-26T19:38:16.356Z,100799.58
2019-05-26T19:41:25.060Z,100793.91
2019-05-26T19:44:33.806Z,100793.46
2019-05-26T19:47:52.783Z,100780.28
2019-05-26T19:51:12.506Z,100776.67
2019-05-26T19:54:37.394Z,100782.95
2019-05-26T19:57:46.135Z,100777.87
2019-05-26T20:00:54.784Z,100771.59
2019-05-26T20:04:03.311Z,100770.75
2019-05-26T20:07:11.867Z,100766.31
2019-05-26T20:10:20.627Z,100758.89
2019-05-26T20:13:29.185Z,100747.24
2019-05-26T20:16:37.744Z,100748.30
2019-05-26T20:19:56.580Z,100739.52
2019-05-26T20:23:05.248Z,100742.37
2019-05-26T20:26:13.817Z,100737.01
2019-05-26T20:29:22.424Z,100733.09
2019-05-26T20:32:31.108Z,100741.84
2019-05-26T20:35:39.657Z,100742.09
2019-05-26T20:38:48.294Z,100739.50
2019-05-26T20:42:07.347Z,100742.44
2019-05-26T20:45:26.643Z,100743.05
2019-05-26T20:48:35.271Z,100744.86
2019-05-26T20:51:43.915Z,100744.94
2019-05-26T20:54:52.454Z,100744.80
2019-05-26T20:58:01.054Z,100738.21
2019-05-26T21:01:08.102Z,100740.18
2019-05-26T21:04:16.747Z,100734.95
2019-05-26T21:07:25.281Z,100735.80
2019-05-26T21:10:44.057Z,100731.78
2019-05-26T21:13:52.607Z,100736.77
2019-05-26T21:17:01.298Z,100734.43
2019-05-26T21:20:10.440Z,100731.63
2019-05-26T21:23:22.508Z,100738.52
2019-05-26T21:26:29.223Z,100736.32
2019-05-26T21:29:37.905Z,100737.59
2019-05-26T21:32:46.448Z,100740.31
2019-05-26T21:35:54.999Z,100743.52
2019-05-26T21:39:13.845Z,100743.80
2019-05-26T21:42:22.413Z,100738.95
2019-05-26T21:45:31.132Z,100743.79
2019-05-26T21:48:40.014Z,100745.25
2019-05-26T21:51:48.644Z,100747.88
2019-05-26T21:54:57.168Z,100745.52
2019-05-26T21:58:05.872Z,100758.25
2019-05-26T22:01:14.463Z,100756.84
2019-05-26T22:04:23.058Z,100752.06
2019-05-26T22:07:42.491Z,100745.71
2019-05-26T22:10:51.233Z,100739.81
2019-05-26T22:14:10.117Z,100747.84
2019-05-26T22:17:18.660Z,100749.96
2019-05-26T22:20:27.366Z,100751.23
2019-05-26T22:23:35.977Z,100747.16
2019-05-26T22:26:44.520Z,100737.54
2019-05-26T22:29:53.247Z,100736.27
2019-05-26T22:33:01.992Z,100732.54
2019-05-26T22:36:10.590Z,100732.02
2019-05-26T22:39:29.435Z,100731.66
2019-05-26T22:42:38.031Z,100727.63
2019-05-26T22:45:46.580Z,100729.38
2019-05-26T22:48:55.236Z,100728.37
2019-05-26T22:52:03.829Z,100721.55
2019-05-26T22:55:12.765Z,100716.42
2019-05-26T22:58:21.340Z,100718.92
2019-05-26T23:01:29.849Z,100710.36
2019-05-26T23:04:48.770Z,100711.20
2019-05-26T23:07:57.628Z,100715.02
2019-05-26T23:11:06.391Z,100702.54
2019-05-26T23:14:14.942Z,100704.42
2019-05-26T23:17:23.716Z,100711.36
2019-05-26T23:20:32.336Z,100705.09
2019-05-26T23:23:40.938Z,100701.53
2019-05-26T23:26:49.933Z,100697.75
2019-05-26T23:29:58.505Z,100694.80
2019-05-26T23:33:07.205Z,100686.03
2019-05-26T23:36:16.062Z,100684.14
2019-05-26T23:39:24.951Z,100679.23
2019-05-26T23:42:33.722Z,100676.42
2019-05-26T23:45:42.276Z,100680.80
2019-05-26T23:48:50.956Z,100665.48
2019-05-26T23:51:59.521Z,100666.15
2019-05-26T23:55:18.407Z,100657.86
2019-05-26T23:58:26.973Z,100659.56
